sensor_id;sensor_type;location;lat;lon;timestamp;P1;durP1;ratioP1;P2;durP2;ratioP2
572;SDS011;271;51.114;13.780;2023-07-13T00:01:16;15.17;;;2.57;;
572;SDS011;271;51.114;13.780;2023-07-13T00:04:04;14.33;;;2.10;;
572;SDS011;271;51.114;13.780;2023-07-13T00:06:52;14.30;;;1.90;;
572;SDS011;271;51.114;13.780;2023-07-13T00:09:41;14.30;;;2.20;;
572;SDS011;271;51.114;13.780;2023-07-13T00:12:30;14.87;;;2.70;;
572;SDS011;271;51.114;13.780;2023-07-13T00:15:21;14.70;;;2.33;;
572;SDS011;271;51.114;13.780;2023-07-13T00:18:09;14.30;;;2.40;;
572;SDS011;271;51.114;13.780;2023-07-13T00:20:57;14.97;;;2.70;;
572;SDS011;271;51.114;13.780;2023-07-13T00:23:50;14.07;;;1.97;;
572;SDS011;271;51.114;13.780;2023-07-13T00:26:39;14.80;;;2.57;;
572;SDS011;271;51.114;13.780;2023-07-13T00:29:31;14.43;;;2.10;;
572;SDS011;271;51.114;13.780;2023-07-13T00:32:19;14.80;;;1.90;;
572;SDS011;271;51.114;13.780;2023-07-13T00:35:07;14.57;;;2.13;;
572;SDS011;271;51.114;13.780;2023-07-13T00:37:55;15.10;;;2.60;;
572;SDS011;271;51.114;13.780;2023-07-13T00:40:43;15.30;;;2.33;;
572;SDS011;271;51.114;13.780;2023-07-13T00:43:32;14.30;;;1.90;;
572;SDS011;271;51.114;13.780;2023-07-13T00:46:22;14.80;;;2.30;;
572;SDS011;271;51.114;13.780;2023-07-13T00:49:13;15.60;;;2.60;;
572;SDS011;271;51.114;13.780;2023-07-13T00:52:04;14.93;;;2.60;;
572;SDS011;271;51.114;13.780;2023-07-13T00:54:52;16.27;;;3.27;;
572;SDS011;271;51.114;13.780;2023-07-13T00:57:41;15.03;;;2.57;;
572;SDS011;271;51.114;13.780;2023-07-13T01:00:31;15.17;;;2.70;;
572;SDS011;271;51.114;13.780;2023-07-13T01:03:21;14.87;;;2.63;;
572;SDS011;271;51.114;13.780;2023-07-13T01:06:09;15.40;;;2.97;;
572;SDS011;271;51.114;13.780;2023-07-13T01:08:58;15.37;;;2.70;;
572;SDS011;271;51.114;13.780;2023-07-13T01:11:46;15.40;;;3.00;;
572;SDS011;271;51.114;13.780;2023-07-13T01:14:34;15.40;;;2.67;;
572;SDS011;271;51.114;13.780;2023-07-13T01:17:23;16.10;;;2.77;;
572;SDS011;271;51.114;13.780;2023-07-13T01:20:11;15.10;;;3.00;;
572;SDS011;271;51.114;13.780;2023-07-13T01:23:00;15.90;;;2.60;;
572;SDS011;271;51.114;13.780;2023-07-13T01:25:49;15.10;;;2.73;;
572;SDS011;271;51.114;13.780;2023-07-13T01:28:37;15.60;;;2.93;;
572;SDS011;271;51.114;13.780;2023-07-13T01:31:25;14.70;;;2.40;;
572;SDS011;271;51.114;13.780;2023-07-13T01:34:12;14.50;;;2.50;;
572;SDS011;271;51.114;13.780;2023-07-13T01:37:00;15.90;;;2.70;;
572;SDS011;271;51.114;13.780;2023-07-13T01:39:49;14.90;;;2.57;;
572;SDS011;271;51.114;13.780;2023-07-13T01:42:37;14.87;;;2.40;;
572;SDS011;271;51.114;13.780;2023-07-13T01:45:26;15.17;;;2.50;;
572;SDS011;271;51.114;13.780;2023-07-13T01:48:13;16.40;;;2.87;;
572;SDS011;271;51.114;13.780;2023-07-13T01:51:01;14.80;;;2.53;;
572;SDS011;271;51.114;13.780;2023-07-13T01:53:49;15.77;;;2.60;;
572;SDS011;271;51.114;13.780;2023-07-13T01:56:38;16.43;;;2.90;;
572;SDS011;271;51.114;13.780;2023-07-13T01:59:27;15.17;;;2.80;;
572;SDS011;271;51.114;13.780;2023-07-13T02:02:15;15.27;;;2.53;;
572;SDS011;271;51.114;13.780;2023-07-13T02:05:03;15.10;;;2.67;;
572;SDS011;271;51.114;13.780;2023-07-13T02:07:51;14.83;;;2.70;;
572;SDS011;271;51.114;13.780;2023-07-13T02:10:39;15.30;;;3.33;;
572;SDS011;271;51.114;13.780;2023-07-13T02:13:28;15.90;;;3.20;;
572;SDS011;271;51.114;13.780;2023-07-13T02:16:16;15.40;;;3.23;;
572;SDS011;271;51.114;13.780;2023-07-13T02:19:03;15.97;;;3.40;;
572;SDS011;271;51.114;13.780;2023-07-13T02:21:52;15.13;;;2.80;;
572;SDS011;271;51.114;13.780;2023-07-13T02:24:40;14.90;;;2.60;;
572;SDS011;271;51.114;13.780;2023-07-13T02:27:27;15.47;;;2.90;;
572;SDS011;271;51.114;13.780;2023-07-13T02:30:16;15.30;;;3.03;;
572;SDS011;271;51.114;13.780;2023-07-13T02:33:04;16.47;;;2.80;;
572;SDS011;271;51.114;13.780;2023-07-13T02:35:52;15.63;;;2.90;;
572;SDS011;271;51.114;13.780;2023-07-13T02:38:41;16.43;;;3.63;;
572;SDS011;271;51.114;13.780;2023-07-13T02:41:29;16.30;;;3.53;;
572;SDS011;271;51.114;13.780;2023-07-13T02:44:17;15.47;;;3.30;;
572;SDS011;271;51.114;13.780;2023-07-13T02:47:06;16.57;;;3.40;;
572;SDS011;271;51.114;13.780;2023-07-13T02:49:54;16.07;;;3.83;;
572;SDS011;271;51.114;13.780;2023-07-13T02:52:41;16.60;;;3.13;;
572;SDS011;271;51.114;13.780;2023-07-13T02:55:29;16.30;;;3.63;;
572;SDS011;271;51.114;13.780;2023-07-13T02:58:17;18.10;;;4.63;;
572;SDS011;271;51.114;13.780;2023-07-13T03:01:06;16.17;;;3.47;;
572;SDS011;271;51.114;13.780;2023-07-13T03:03:56;17.23;;;3.43;;
572;SDS011;271;51.114;13.780;2023-07-13T03:06:44;16.07;;;3.80;;
572;SDS011;271;51.114;13.780;2023-07-13T03:09:33;16.30;;;3.90;;
572;SDS011;271;51.114;13.780;2023-07-13T03:12:21;18.23;;;3.90;;
572;SDS011;271;51.114;13.780;2023-07-13T03:15:09;17.90;;;3.83;;
572;SDS011;271;51.114;13.780;2023-07-13T03:17:57;17.10;;;4.13;;
572;SDS011;271;51.114;13.780;2023-07-13T03:20:46;16.03;;;3.57;;
572;SDS011;271;51.114;13.780;2023-07-13T03:23:37;17.50;;;3.93;;
572;SDS011;271;51.114;13.780;2023-07-13T03:26:25;17.50;;;3.87;;
572;SDS011;271;51.114;13.780;2023-07-13T03:29:12;16.60;;;3.77;;
572;SDS011;271;51.114;13.780;2023-07-13T03:32:00;16.73;;;3.70;;
572;SDS011;271;51.114;13.780;2023-07-13T03:34:48;18.00;;;4.10;;
572;SDS011;271;51.114;13.780;2023-07-13T03:37:37;18.67;;;3.80;;
572;SDS011;271;51.114;13.780;2023-07-13T03:40:28;16.37;;;3.40;;
572;SDS011;271;51.114;13.780;2023-07-13T03:43:15;17.60;;;3.60;;
572;SDS011;271;51.114;13.780;2023-07-13T03:46:03;17.00;;;3.43;;
572;SDS011;271;51.114;13.780;2023-07-13T03:48:51;19.23;;;3.33;;
572;SDS011;271;51.114;13.780;2023-07-13T03:51:39;16.17;;;3.17;;
572;SDS011;271;51.114;13.780;2023-07-13T03:54:28;16.00;;;3.43;;
572;SDS011;271;51.114;13.780;2023-07-13T03:57:16;16.50;;;3.40;;
572;SDS011;271;51.114;13.780;2023-07-13T04:00:05;15.77;;;3.00;;
572;SDS011;271;51.114;13.780;2023-07-13T04:02:54;16.83;;;4.00;;
572;SDS011;271;51.114;13.780;2023-07-13T04:05:42;15.90;;;3.50;;
572;SDS011;271;51.114;13.780;2023-07-13T04:08:30;16.17;;;3.17;;
572;SDS011;271;51.114;13.780;2023-07-13T04:11:24;17.10;;;3.40;;
572;SDS011;271;51.114;13.780;2023-07-13T04:14:13;16.03;;;3.40;;
572;SDS011;271;51.114;13.780;2023-07-13T04:17:01;18.00;;;2.97;;
572;SDS011;271;51.114;13.780;2023-07-13T04:19:49;17.37;;;3.57;;
572;SDS011;271;51.114;13.780;2023-07-13T04:22:36;17.40;;;4.33;;
572;SDS011;271;51.114;13.780;2023-07-13T04:25:24;16.40;;;3.53;;
572;SDS011;271;51.114;13.780;2023-07-13T04:28:13;15.97;;;3.47;;
572;SDS011;271;51.114;13.780;2023-07-13T04:31:01;16.00;;;3.23;;
572;SDS011;271;51.114;13.780;2023-07-13T04:33:49;15.70;;;3.43;;
572;SDS011;271;51.114;13.780;2023-07-13T04:36:37;16.60;;;3.53;;
572;SDS011;271;51.114;13.780;2023-07-13T04:39:25;17.13;;;3.80;;
572;SDS011;271;51.114;13.780;2023-07-13T04:42:13;16.40;;;3.83;;
572;SDS011;271;51.114;13.780;2023-07-13T04:45:02;16.83;;;3.63;;
572;SDS011;271;51.114;13.780;2023-07-13T04:47:50;19.63;;;4.20;;
572;SDS011;271;51.114;13.780;2023-07-13T04:50:38;16.90;;;3.97;;
572;SDS011;271;51.114;13.780;2023-07-13T04:53:26;17.47;;;4.00;;
572;SDS011;271;51.114;13.780;2023-07-13T04:56:14;16.00;;;3.10;;
572;SDS011;271;51.114;13.780;2023-07-13T04:59:02;17.27;;;3.60;;
572;SDS011;271;51.114;13.780;2023-07-13T05:01:51;15.70;;;2.97;;
572;SDS011;271;51.114;13.780;2023-07-13T05:04:39;17.00;;;3.60;;
572;SDS011;271;51.114;13.780;2023-07-13T05:07:26;17.10;;;3.40;;
572;SDS011;271;51.114;13.780;2023-07-13T05:10:14;17.50;;;3.43;;
572;SDS011;271;51.114;13.780;2023-07-13T05:13:02;20.23;;;4.77;;
572;SDS011;271;51.114;13.780;2023-07-13T05:15:55;19.90;;;8.87;;
572;SDS011;271;51.114;13.780;2023-07-13T05:18:45;19.60;;;4.50;;
572;SDS011;271;51.114;13.780;2023-07-13T05:21:33;16.10;;;2.67;;
572;SDS011;271;51.114;13.780;2023-07-13T05:24:21;15.50;;;2.57;;
572;SDS011;271;51.114;13.780;2023-07-13T05:27:09;15.53;;;2.90;;
572;SDS011;271;51.114;13.780;2023-07-13T05:29:57;15.03;;;2.20;;
572;SDS011;271;51.114;13.780;2023-07-13T05:32:45;15.00;;;2.53;;
572;SDS011;271;51.114;13.780;2023-07-13T05:35:34;16.80;;;2.80;;
572;SDS011;271;51.114;13.780;2023-07-13T05:38:21;16.73;;;2.70;;
572;SDS011;271;51.114;13.780;2023-07-13T05:41:09;15.60;;;2.80;;
572;SDS011;271;51.114;13.780;2023-07-13T05:43:57;17.43;;;2.97;;
572;SDS011;271;51.114;13.780;2023-07-13T05:46:45;16.00;;;2.93;;
572;SDS011;271;51.114;13.780;2023-07-13T05:49:33;15.60;;;2.53;;
572;SDS011;271;51.114;13.780;2023-07-13T05:52:22;15.40;;;2.50;;
572;SDS011;271;51.114;13.780;2023-07-13T05:55:09;15.70;;;2.80;;
572;SDS011;271;51.114;13.780;2023-07-13T05:57:58;15.03;;;2.47;;
572;SDS011;271;51.114;13.780;2023-07-13T06:00:47;15.40;;;2.97;;
572;SDS011;271;51.114;13.780;2023-07-13T06:03:35;16.33;;;3.27;;
572;SDS011;271;51.114;13.780;2023-07-13T06:06:24;16.00;;;3.07;;
572;SDS011;271;51.114;13.780;2023-07-13T06:09:13;16.00;;;2.80;;
572;SDS011;271;51.114;13.780;2023-07-13T06:12:01;17.20;;;2.87;;
572;SDS011;271;51.114;13.780;2023-07-13T06:14:49;15.30;;;2.63;;
572;SDS011;271;51.114;13.780;2023-07-13T06:17:37;16.20;;;2.60;;
572;SDS011;271;51.114;13.780;2023-07-13T06:20:25;16.13;;;2.80;;
572;SDS011;271;51.114;13.780;2023-07-13T06:23:12;15.93;;;3.23;;
572;SDS011;271;51.114;13.780;2023-07-13T06:26:02;15.47;;;2.47;;
572;SDS011;271;51.114;13.780;2023-07-13T06:28:50;15.20;;;3.00;;
572;SDS011;271;51.114;13.780;2023-07-13T06:31:37;17.03;;;2.40;;
572;SDS011;271;51.114;13.780;2023-07-13T06:34:25;15.43;;;2.77;;
572;SDS011;271;51.114;13.780;2023-07-13T06:37:13;14.90;;;2.37;;
572;SDS011;271;51.114;13.780;2023-07-13T06:40:01;15.70;;;2.63;;
572;SDS011;271;51.114;13.780;2023-07-13T06:42:51;14.30;;;2.20;;
572;SDS011;271;51.114;13.780;2023-07-13T06:45:48;14.67;;;2.57;;
572;SDS011;271;51.114;13.780;2023-07-13T06:48:36;15.87;;;2.60;;
572;SDS011;271;51.114;13.780;2023-07-13T06:51:27;16.90;;;2.60;;
572;SDS011;271;51.114;13.780;2023-07-13T06:54:15;16.10;;;2.33;;
572;SDS011;271;51.114;13.780;2023-07-13T06:57:03;15.50;;;2.20;;
572;SDS011;271;51.114;13.780;2023-07-13T06:59:53;16.30;;;2.40;;
572;SDS011;271;51.114;13.780;2023-07-13T07:02:42;14.17;;;2.70;;
572;SDS011;271;51.114;13.780;2023-07-13T07:05:30;15.30;;;2.60;;
572;SDS011;271;51.114;13.780;2023-07-13T07:08:20;14.83;;;2.80;;
572;SDS011;271;51.114;13.780;2023-07-13T07:11:08;14.53;;;2.43;;
572;SDS011;271;51.114;13.780;2023-07-13T07:13:59;14.83;;;2.43;;
572;SDS011;271;51.114;13.780;2023-07-13T07:16:49;16.10;;;2.63;;
572;SDS011;271;51.114;13.780;2023-07-13T07:19:37;14.70;;;2.60;;
572;SDS011;271;51.114;13.780;2023-07-13T07:22:25;15.73;;;2.00;;
572;SDS011;271;51.114;13.780;2023-07-13T07:25:13;14.57;;;2.20;;
572;SDS011;271;51.114;13.780;2023-07-13T07:28:01;17.60;;;2.87;;
572;SDS011;271;51.114;13.780;2023-07-13T07:30:52;15.10;;;2.63;;
572;SDS011;271;51.114;13.780;2023-07-13T07:33:42;15.57;;;2.83;;
572;SDS011;271;51.114;13.780;2023-07-13T07:36:29;15.03;;;2.17;;
572;SDS011;271;51.114;13.780;2023-07-13T07:39:17;17.53;;;2.50;;
572;SDS011;271;51.114;13.780;2023-07-13T07:42:08;15.53;;;3.07;;
572;SDS011;271;51.114;13.780;2023-07-13T07:44:56;14.20;;;2.13;;
572;SDS011;271;51.114;13.780;2023-07-13T07:47:46;15.00;;;1.93;;
572;SDS011;271;51.114;13.780;2023-07-13T07:50:36;14.80;;;2.00;;
572;SDS011;271;51.114;13.780;2023-07-13T07:53:24;15.17;;;2.67;;
572;SDS011;271;51.114;13.780;2023-07-13T07:56:12;15.60;;;2.80;;
572;SDS011;271;51.114;13.780;2023-07-13T07:59:02;14.03;;;1.80;;
572;SDS011;271;51.114;13.780;2023-07-13T08:01:49;15.00;;;2.53;;
572;SDS011;271;51.114;13.780;2023-07-13T08:04:40;15.43;;;2.60;;
572;SDS011;271;51.114;13.780;2023-07-13T08:07:31;15.10;;;3.13;;
572;SDS011;271;51.114;13.780;2023-07-13T08:10:18;15.70;;;2.80;;
572;SDS011;271;51.114;13.780;2023-07-13T08:13:06;14.77;;;2.20;;
572;SDS011;271;51.114;13.780;2023-07-13T08:15:57;14.67;;;2.67;;
572;SDS011;271;51.114;13.780;2023-07-13T08:18:45;14.77;;;2.23;;
572;SDS011;271;51.114;13.780;2023-07-13T08:21:33;15.17;;;2.40;;
572;SDS011;271;51.114;13.780;2023-07-13T08:24:23;14.43;;;2.53;;
572;SDS011;271;51.114;13.780;2023-07-13T08:27:11;17.90;;;2.77;;
572;SDS011;271;51.114;13.780;2023-07-13T08:30:11;14.50;;;2.23;;
572;SDS011;271;51.114;13.780;2023-07-13T08:33:20;14.50;;;2.20;;
572;SDS011;271;51.114;13.780;2023-07-13T08:36:13;14.10;;;2.00;;
572;SDS011;271;51.114;13.780;2023-07-13T08:39:01;14.20;;;2.20;;
572;SDS011;271;51.114;13.780;2023-07-13T08:41:51;14.97;;;2.70;;
572;SDS011;271;51.114;13.780;2023-07-13T08:44:49;14.30;;;2.20;;
572;SDS011;271;51.114;13.780;2023-07-13T08:47:44;14.00;;;1.60;;
572;SDS011;271;51.114;13.780;2023-07-13T08:53:46;15.37;;;2.30;;
572;SDS011;271;51.114;13.780;2023-07-13T08:56:35;15.67;;;2.90;;
572;SDS011;271;51.114;13.780;2023-07-13T08:59:26;15.23;;;2.10;;
572;SDS011;271;51.114;13.780;2023-07-13T09:02:25;16.07;;;2.20;;
572;SDS011;271;51.114;13.780;2023-07-13T09:05:29;14.30;;;1.90;;
572;SDS011;271;51.114;13.780;2023-07-13T09:11:45;15.90;;;1.73;;
572;SDS011;271;51.114;13.780;2023-07-13T09:14:41;14.30;;;2.17;;
572;SDS011;271;51.114;13.780;2023-07-13T09:17:32;14.90;;;2.50;;
572;SDS011;271;51.114;13.780;2023-07-13T09:20:42;14.53;;;2.00;;
572;SDS011;271;51.114;13.780;2023-07-13T09:23:35;14.50;;;1.93;;
572;SDS011;271;51.114;13.780;2023-07-13T09:26:25;14.37;;;1.93;;
572;SDS011;271;51.114;13.780;2023-07-13T09:29:20;15.03;;;1.83;;
572;SDS011;271;51.114;13.780;2023-07-13T09:32:15;14.40;;;2.00;;
572;SDS011;271;51.114;13.780;2023-07-13T09:35:19;14.10;;;2.00;;
572;SDS011;271;51.114;13.780;2023-07-13T09:38:13;14.13;;;1.70;;
572;SDS011;271;51.114;13.780;2023-07-13T09:41:04;14.93;;;2.40;;
572;SDS011;271;51.114;13.780;2023-07-13T09:44:27;14.53;;;2.13;;
572;SDS011;271;51.114;13.780;2023-07-13T09:47:19;15.30;;;2.03;;
572;SDS011;271;51.114;13.780;2023-07-13T09:50:12;15.40;;;1.87;;
572;SDS011;271;51.114;13.780;2023-07-13T09:53:19;15.50;;;2.40;;
572;SDS011;271;51.114;13.780;2023-07-13T09:56:21;14.00;;;2.03;;
572;SDS011;271;51.114;13.780;2023-07-13T09:59:34;15.33;;;2.30;;
572;SDS011;271;51.114;13.780;2023-07-13T10:02:28;14.20;;;2.07;;
572;SDS011;271;51.114;13.780;2023-07-13T10:05:18;14.00;;;1.87;;
572;SDS011;271;51.114;13.780;2023-07-13T10:11:23;16.33;;;2.27;;
572;SDS011;271;51.114;13.780;2023-07-13T10:14:16;14.17;;;1.80;;
572;SDS011;271;51.114;13.780;2023-07-13T10:17:10;15.40;;;1.90;;
572;SDS011;271;51.114;13.780;2023-07-13T10:20:02;16.90;;;2.60;;
572;SDS011;271;51.114;13.780;2023-07-13T10:26:15;14.53;;;2.50;;
572;SDS011;271;51.114;13.780;2023-07-13T10:29:22;16.50;;;2.50;;
572;SDS011;271;51.114;13.780;2023-07-13T10:32:15;14.20;;;1.90;;
572;SDS011;271;51.114;13.780;2023-07-13T10:35:04;14.80;;;1.90;;
572;SDS011;271;51.114;13.780;2023-07-13T10:37:56;14.27;;;2.10;;
572;SDS011;271;51.114;13.780;2023-07-13T10:40:49;16.10;;;2.20;;
572;SDS011;271;51.114;13.780;2023-07-13T10:44:02;14.53;;;2.00;;
572;SDS011;271;51.114;13.780;2023-07-13T10:46:52;14.13;;;1.60;;
572;SDS011;271;51.114;13.780;2023-07-13T10:49:43;16.00;;;2.37;;
572;SDS011;271;51.114;13.780;2023-07-13T10:52:42;14.50;;;2.03;;
572;SDS011;271;51.114;13.780;2023-07-13T10:58:45;14.30;;;1.70;;
572;SDS011;271;51.114;13.780;2023-07-13T11:01:39;15.10;;;1.97;;
572;SDS011;271;51.114;13.780;2023-07-13T11:04:39;14.60;;;1.80;;
572;SDS011;271;51.114;13.780;2023-07-13T11:07:54;15.10;;;1.80;;
572;SDS011;271;51.114;13.780;2023-07-13T11:11:02;14.60;;;1.77;;
572;SDS011;271;51.114;13.780;2023-07-13T11:13:57;16.10;;;2.13;;
572;SDS011;271;51.114;13.780;2023-07-13T11:16:48;14.23;;;1.97;;
572;SDS011;271;51.114;13.780;2023-07-13T11:19:38;17.00;;;2.10;;
572;SDS011;271;51.114;13.780;2023-07-13T11:25:56;14.37;;;1.80;;
572;SDS011;271;51.114;13.780;2023-07-13T11:28:45;14.80;;;1.80;;
572;SDS011;271;51.114;13.780;2023-07-13T11:31:37;15.50;;;1.77;;
572;SDS011;271;51.114;13.780;2023-07-13T11:34:30;14.27;;;1.80;;
572;SDS011;271;51.114;13.780;2023-07-13T11:40:35;14.63;;;2.00;;
572;SDS011;271;51.114;13.780;2023-07-13T11:43:37;14.77;;;1.80;;
572;SDS011;271;51.114;13.780;2023-07-13T11:46:34;14.20;;;1.80;;
572;SDS011;271;51.114;13.780;2023-07-13T11:49:22;14.83;;;2.10;;
572;SDS011;271;51.114;13.780;2023-07-13T11:52:13;14.20;;;1.80;;
572;SDS011;271;51.114;13.780;2023-07-13T11:55:05;15.60;;;1.90;;
572;SDS011;271;51.114;13.780;2023-07-13T11:58:04;14.40;;;1.97;;
572;SDS011;271;51.114;13.780;2023-07-13T12:00:52;15.10;;;1.60;;
572;SDS011;271;51.114;13.780;2023-07-13T12:03:40;18.47;;;1.90;;
572;SDS011;271;51.114;13.780;2023-07-13T12:06:28;14.20;;;2.10;;
572;SDS011;271;51.114;13.780;2023-07-13T12:09:17;16.67;;;2.17;;
572;SDS011;271;51.114;13.780;2023-07-13T12:12:10;15.73;;;2.00;;
572;SDS011;271;51.114;13.780;2023-07-13T12:15:00;14.23;;;1.97;;
572;SDS011;271;51.114;13.780;2023-07-13T12:18:11;13.87;;;1.70;;
572;SDS011;271;51.114;13.780;2023-07-13T12:21:00;15.60;;;2.20;;
572;SDS011;271;51.114;13.780;2023-07-13T12:23:49;15.77;;;2.23;;
572;SDS011;271;51.114;13.780;2023-07-13T12:26:37;14.83;;;1.83;;
572;SDS011;271;51.114;13.780;2023-07-13T12:29:25;14.57;;;1.97;;
572;SDS011;271;51.114;13.780;2023-07-13T12:32:14;15.37;;;1.90;;
572;SDS011;271;51.114;13.780;2023-07-13T12:35:14;16.60;;;2.13;;
572;SDS011;271;51.114;13.780;2023-07-13T12:41:18;14.10;;;1.70;;
572;SDS011;271;51.114;13.780;2023-07-13T12:44:09;15.77;;;1.90;;
572;SDS011;271;51.114;13.780;2023-07-13T12:47:02;15.40;;;1.97;;
572;SDS011;271;51.114;13.780;2023-07-13T12:49:58;15.10;;;1.67;;
572;SDS011;271;51.114;13.780;2023-07-13T12:53:03;13.93;;;1.70;;
572;SDS011;271;51.114;13.780;2023-07-13T12:55:54;15.20;;;2.07;;
572;SDS011;271;51.114;13.780;2023-07-13T12:58:45;15.23;;;2.07;;
572;SDS011;271;51.114;13.780;2023-07-13T13:01:40;15.00;;;2.30;;
572;SDS011;271;51.114;13.780;2023-07-13T13:04:30;14.10;;;1.60;;
572;SDS011;271;51.114;13.780;2023-07-13T13:07:19;16.63;;;2.20;;
572;SDS011;271;51.114;13.780;2023-07-13T13:10:11;14.70;;;1.80;;
572;SDS011;271;51.114;13.780;2023-07-13T13:12:59;15.50;;;1.90;;
572;SDS011;271;51.114;13.780;2023-07-13T13:15:47;15.67;;;2.10;;
572;SDS011;271;51.114;13.780;2023-07-13T13:18:35;16.17;;;2.00;;
572;SDS011;271;51.114;13.780;2023-07-13T13:21:23;15.37;;;1.83;;
572;SDS011;271;51.114;13.780;2023-07-13T13:24:13;13.93;;;2.10;;
572;SDS011;271;51.114;13.780;2023-07-13T13:27:03;14.00;;;1.60;;
572;SDS011;271;51.114;13.780;2023-07-13T13:29:52;13.80;;;1.60;;
572;SDS011;271;51.114;13.780;2023-07-13T13:32:40;14.90;;;1.50;;
572;SDS011;271;51.114;13.780;2023-07-13T13:35:28;15.70;;;1.50;;
572;SDS011;271;51.114;13.780;2023-07-13T13:38:17;14.50;;;1.50;;
572;SDS011;271;51.114;13.780;2023-07-13T13:44:17;14.53;;;1.77;;
572;SDS011;271;51.114;13.780;2023-07-13T13:47:07;15.23;;;1.70;;
572;SDS011;271;51.114;13.780;2023-07-13T13:50:30;14.70;;;1.87;;
572;SDS011;271;51.114;13.780;2023-07-13T13:53:18;14.07;;;1.60;;
572;SDS011;271;51.114;13.780;2023-07-13T13:56:06;15.77;;;1.57;;
572;SDS011;271;51.114;13.780;2023-07-13T13:58:56;13.90;;;1.60;;
572;SDS011;271;51.114;13.780;2023-07-13T14:01:44;14.17;;;1.53;;
572;SDS011;271;51.114;13.780;2023-07-13T14:04:34;14.90;;;1.70;;
572;SDS011;271;51.114;13.780;2023-07-13T14:07:22;16.17;;;2.03;;
572;SDS011;271;51.114;13.780;2023-07-13T14:10:11;14.53;;;1.93;;
572;SDS011;271;51.114;13.780;2023-07-13T14:13:00;17.63;;;1.90;;
572;SDS011;271;51.114;13.780;2023-07-13T14:15:52;15.20;;;1.93;;
572;SDS011;271;51.114;13.780;2023-07-13T14:18:40;16.43;;;2.27;;
572;SDS011;271;51.114;13.780;2023-07-13T14:21:28;13.80;;;1.47;;
572;SDS011;271;51.114;13.780;2023-07-13T14:24:16;14.43;;;2.10;;
572;SDS011;271;51.114;13.780;2023-07-13T14:27:04;14.90;;;1.90;;
572;SDS011;271;51.114;13.780;2023-07-13T14:29:55;15.77;;;2.20;;
572;SDS011;271;51.114;13.780;2023-07-13T14:32:44;16.30;;;2.23;;
572;SDS011;271;51.114;13.780;2023-07-13T14:35:33;14.90;;;1.90;;
572;SDS011;271;51.114;13.780;2023-07-13T14:38:20;14.67;;;1.90;;
572;SDS011;271;51.114;13.780;2023-07-13T14:41:11;14.50;;;1.80;;
572;SDS011;271;51.114;13.780;2023-07-13T14:43:59;15.60;;;1.73;;
572;SDS011;271;51.114;13.780;2023-07-13T14:46:47;15.00;;;2.13;;
572;SDS011;271;51.114;13.780;2023-07-13T14:49:38;13.73;;;1.57;;
572;SDS011;271;51.114;13.780;2023-07-13T14:52:29;15.60;;;1.80;;
572;SDS011;271;51.114;13.780;2023-07-13T14:55:17;14.63;;;2.20;;
572;SDS011;271;51.114;13.780;2023-07-13T14:58:06;15.07;;;1.77;;
572;SDS011;271;51.114;13.780;2023-07-13T15:00:53;13.90;;;1.60;;
572;SDS011;271;51.114;13.780;2023-07-13T15:03:44;14.70;;;1.60;;
572;SDS011;271;51.114;13.780;2023-07-13T15:09:56;14.67;;;2.00;;
572;SDS011;271;51.114;13.780;2023-07-13T15:12:44;14.30;;;1.87;;
572;SDS011;271;51.114;13.780;2023-07-13T15:15:33;15.50;;;1.97;;
572;SDS011;271;51.114;13.780;2023-07-13T15:18:22;14.00;;;1.57;;
572;SDS011;271;51.114;13.780;2023-07-13T15:21:14;14.97;;;1.63;;
572;SDS011;271;51.114;13.780;2023-07-13T15:24:08;14.77;;;1.77;;
572;SDS011;271;51.114;13.780;2023-07-13T15:26:57;15.33;;;1.80;;
572;SDS011;271;51.114;13.780;2023-07-13T15:29:44;13.73;;;1.40;;
572;SDS011;271;51.114;13.780;2023-07-13T15:32:32;13.70;;;1.30;;
572;SDS011;271;51.114;13.780;2023-07-13T15:35:24;13.90;;;1.33;;
572;SDS011;271;51.114;13.780;2023-07-13T15:38:14;14.80;;;1.40;;
572;SDS011;271;51.114;13.780;2023-07-13T15:41:08;13.87;;;1.30;;
572;SDS011;271;51.114;13.780;2023-07-13T15:44:23;13.90;;;1.20;;
572;SDS011;271;51.114;13.780;2023-07-13T15:47:13;14.27;;;1.37;;
572;SDS011;271;51.114;13.780;2023-07-13T15:50:01;14.87;;;1.50;;
572;SDS011;271;51.114;13.780;2023-07-13T15:52:50;14.10;;;1.20;;
572;SDS011;271;51.114;13.780;2023-07-13T15:55:41;14.43;;;1.30;;
572;SDS011;271;51.114;13.780;2023-07-13T15:58:30;14.17;;;1.33;;
572;SDS011;271;51.114;13.780;2023-07-13T16:01:18;14.20;;;1.40;;
572;SDS011;271;51.114;13.780;2023-07-13T16:04:08;15.70;;;1.37;;
572;SDS011;271;51.114;13.780;2023-07-13T16:06:58;14.20;;;1.30;;
572;SDS011;271;51.114;13.780;2023-07-13T16:10:24;13.47;;;1.00;;
572;SDS011;271;51.114;13.780;2023-07-13T16:21:37;13.43;;;0.93;;
572;SDS011;271;51.114;13.780;2023-07-13T16:24:52;14.73;;;1.40;;
572;SDS011;271;51.114;13.780;2023-07-13T16:31:08;14.30;;;1.10;;
572;SDS011;271;51.114;13.780;2023-07-13T16:35:02;15.23;;;1.20;;
572;SDS011;271;51.114;13.780;2023-07-13T16:38:20;14.80;;;1.67;;
572;SDS011;271;51.114;13.780;2023-07-13T16:41:10;13.77;;;1.40;;
572;SDS011;271;51.114;13.780;2023-07-13T16:43:57;14.90;;;1.47;;
572;SDS011;271;51.114;13.780;2023-07-13T16:46:45;13.63;;;1.30;;
572;SDS011;271;51.114;13.780;2023-07-13T16:49:36;15.97;;;1.90;;
572;SDS011;271;51.114;13.780;2023-07-13T16:52:25;14.70;;;2.00;;
572;SDS011;271;51.114;13.780;2023-07-13T16:55:14;14.43;;;1.93;;
572;SDS011;271;51.114;13.780;2023-07-13T16:58:04;15.80;;;2.10;;
572;SDS011;271;51.114;13.780;2023-07-13T17:00:52;16.70;;;2.47;;
572;SDS011;271;51.114;13.780;2023-07-13T17:03:40;15.77;;;2.10;;
572;SDS011;271;51.114;13.780;2023-07-13T17:06:28;15.47;;;1.97;;
572;SDS011;271;51.114;13.780;2023-07-13T17:09:17;15.47;;;2.27;;
572;SDS011;271;51.114;13.780;2023-07-13T17:12:18;14.83;;;2.20;;
572;SDS011;271;51.114;13.780;2023-07-13T17:15:08;15.47;;;2.10;;
572;SDS011;271;51.114;13.780;2023-07-13T17:18:11;15.80;;;2.70;;
572;SDS011;271;51.114;13.780;2023-07-13T17:21:09;15.30;;;2.30;;
572;SDS011;271;51.114;13.780;2023-07-13T17:24:04;15.17;;;1.90;;
572;SDS011;271;51.114;13.780;2023-07-13T17:27:11;14.80;;;1.83;;
572;SDS011;271;51.114;13.780;2023-07-13T17:30:13;14.80;;;1.80;;
572;SDS011;271;51.114;13.780;2023-07-13T17:33:02;14.97;;;2.07;;
572;SDS011;271;51.114;13.780;2023-07-13T17:35:55;14.30;;;1.60;;
572;SDS011;271;51.114;13.780;2023-07-13T17:38:44;14.47;;;1.60;;
572;SDS011;271;51.114;13.780;2023-07-13T17:41:36;14.00;;;1.60;;
572;SDS011;271;51.114;13.780;2023-07-13T17:44:26;13.73;;;1.40;;
572;SDS011;271;51.114;13.780;2023-07-13T17:47:20;22.40;;;1.80;;
572;SDS011;271;51.114;13.780;2023-07-13T17:50:25;14.70;;;1.80;;
572;SDS011;271;51.114;13.780;2023-07-13T17:53:21;14.53;;;1.30;;
572;SDS011;271;51.114;13.780;2023-07-13T17:56:10;13.80;;;1.50;;
572;SDS011;271;51.114;13.780;2023-07-13T17:58:59;16.20;;;1.50;;
572;SDS011;271;51.114;13.780;2023-07-13T18:01:47;13.70;;;1.40;;
572;SDS011;271;51.114;13.780;2023-07-13T18:04:36;14.30;;;1.20;;
572;SDS011;271;51.114;13.780;2023-07-13T18:07:24;15.90;;;1.47;;
572;SDS011;271;51.114;13.780;2023-07-13T18:10:14;14.90;;;1.47;;
572;SDS011;271;51.114;13.780;2023-07-13T18:13:02;14.50;;;1.40;;
572;SDS011;271;51.114;13.780;2023-07-13T18:15:50;14.60;;;1.53;;
572;SDS011;271;51.114;13.780;2023-07-13T18:18:39;14.23;;;1.93;;
572;SDS011;271;51.114;13.780;2023-07-13T18:21:28;14.00;;;1.37;;
572;SDS011;271;51.114;13.780;2023-07-13T18:24:17;13.67;;;1.33;;
572;SDS011;271;51.114;13.780;2023-07-13T18:27:05;14.57;;;1.23;;